Royal Center, Indiana
Current Conditions -  °F | °C
As of 1:35 AM on Sunday 21 Dec 2014 (Local Time) from KGGP Reporting Station
Haze Haze  
Wind Chill: 25°   Ceiling: 6500
Heat Index: 30°   Visibility: 5mi
Dew Point: 28°   Wind: 5mph
Humidity: 93%   Direction: 160°SSE
Pressure: 30.28"   Gusts: NA
Location:  40.86°N, 86.5°W
Report Text: KGGP 210635Z AUTO 16004KT 5SM BR OVC065 M01/M02 A3028 RMK AO2
Loading
Personal Weather Stations






























Interactive Weather Map New forecast layout! Learn more

10-Day Weather Forecast

Advertisements
Track Severe Weather on mobile